sensor_id;sensor_type;location;lat;lon;timestamp;pressure;altitude;pressure_sealevel;temperature;humidity
8477;BME280;4275;42.854;23.222;2023-12-04T00:01:16;38588.28;;;-141.02;100.00
8477;BME280;4275;42.854;23.222;2023-12-04T00:03:43;38622.81;;;-141.02;100.00
8477;BME280;4275;42.854;23.222;2023-12-04T00:06:16;38617.06;;;-141.02;100.00
8477;BME280;4275;42.854;23.222;2023-12-04T00:08:43;38630.47;;;-141.02;100.00
8477;BME280;4275;42.854;23.222;2023-12-04T00:11:11;38597.88;;;-141.02;100.00
8477;BME280;4275;42.854;23.222;2023-12-04T00:13:37;38626.66;;;-141.02;100.00
8477;BME280;4275;42.854;23.222;2023-12-04T00:16:04;38603.63;;;-141.02;100.00
8477;BME280;4275;42.854;23.222;2023-12-04T00:18:32;38622.81;;;-141.02;100.00
8477;BME280;4275;42.854;23.222;2023-12-04T00:20:59;38630.47;;;-141.02;100.00
8477;BME280;4275;42.854;23.222;2023-12-04T00:23:26;38638.16;;;-141.02;100.00
8477;BME280;4275;42.854;23.222;2023-12-04T00:25:54;38622.81;;;-141.02;100.00
8477;BME280;4275;42.854;23.222;2023-12-04T00:28:21;38595.97;;;-141.02;100.00
8477;BME280;4275;42.854;23.222;2023-12-04T00:30:48;38595.97;;;-141.02;100.00
8477;BME280;4275;42.854;23.222;2023-12-04T00:33:15;38638.16;;;-141.02;100.00
8477;BME280;4275;42.854;23.222;2023-12-04T00:35:43;38622.81;;;-141.02;100.00
8477;BME280;4275;42.854;23.222;2023-12-04T00:38:10;38626.66;;;-141.02;100.00
8477;BME280;4275;42.854;23.222;2023-12-04T00:40:37;38630.47;;;-141.02;100.00
8477;BME280;4275;42.854;23.222;2023-12-04T00:43:04;38597.88;;;-141.02;100.00
8477;BME280;4275;42.854;23.222;2023-12-04T00:45:31;38603.63;;;-141.02;100.00
8477;BME280;4275;42.854;23.222;2023-12-04T00:47:58;38618.97;;;-141.02;100.00
8477;BME280;4275;42.854;23.222;2023-12-04T00:50:28;38653.50;;;-141.02;100.00
8477;BME280;4275;42.854;23.222;2023-12-04T00:52:56;38607.47;;;-141.02;100.00
8477;BME280;4275;42.854;23.222;2023-12-04T00:55:23;38634.31;;;-141.02;100.00
8477;BME280;4275;42.854;23.222;2023-12-04T00:57:50;38630.47;;;-141.02;100.00
8477;BME280;4275;42.854;23.222;2023-12-04T01:00:17;38615.13;;;-141.02;100.00
8477;BME280;4275;42.854;23.222;2023-12-04T01:02:44;38657.31;;;-141.02;100.00
8477;BME280;4275;42.854;23.222;2023-12-04T01:05:11;38638.16;;;-141.02;100.00
8477;BME280;4275;42.854;23.222;2023-12-04T01:07:38;38634.31;;;-141.02;100.00
8477;BME280;4275;42.854;23.222;2023-12-04T01:10:08;38626.66;;;-141.02;100.00
8477;BME280;4275;42.854;23.222;2023-12-04T01:12:35;38622.81;;;-141.02;100.00
8477;BME280;4275;42.854;23.222;2023-12-04T01:15:02;38655.41;;;-141.02;100.00
8477;BME280;4275;42.854;23.222;2023-12-04T01:17:29;38645.81;;;-141.02;100.00
8477;BME280;4275;42.854;23.222;2023-12-04T01:19:56;38657.31;;;-141.02;100.00
8477;BME280;4275;42.854;23.222;2023-12-04T01:22:24;38676.50;;;-141.02;100.00
8477;BME280;4275;42.854;23.222;2023-12-04T01:24:50;38607.47;;;-141.02;100.00
8477;BME280;4275;42.854;23.222;2023-12-04T01:27:19;38617.06;;;-141.02;100.00
8477;BME280;4275;42.854;23.222;2023-12-04T01:29:46;38672.66;;;-141.02;100.00
8477;BME280;4275;42.854;23.222;2023-12-04T01:32:13;38630.47;;;-141.02;100.00
8477;BME280;4275;42.854;23.222;2023-12-04T01:34:40;38638.16;;;-141.02;100.00
8477;BME280;4275;42.854;23.222;2023-12-04T01:37:07;38626.66;;;-141.02;100.00
8477;BME280;4275;42.854;23.222;2023-12-04T01:39:34;38643.91;;;-141.02;100.00
8477;BME280;4275;42.854;23.222;2023-12-04T01:42:01;38653.50;;;-141.02;100.00
8477;BME280;4275;42.854;23.222;2023-12-04T01:44:29;38618.97;;;-141.02;100.00
8477;BME280;4275;42.854;23.222;2023-12-04T01:46:56;38636.22;;;-141.02;100.00
8477;BME280;4275;42.854;23.222;2023-12-04T01:49:23;38657.31;;;-141.02;100.00
8477;BME280;4275;42.854;23.222;2023-12-04T01:51:51;38630.47;;;-141.02;100.00
8477;BME280;4275;42.854;23.222;2023-12-04T01:54:18;38655.41;;;-141.02;100.00
8477;BME280;4275;42.854;23.222;2023-12-04T01:56:46;38634.31;;;-141.02;100.00
8477;BME280;4275;42.854;23.222;2023-12-04T01:59:13;38638.16;;;-141.02;100.00
8477;BME280;4275;42.854;23.222;2023-12-04T02:01:42;38613.22;;;-141.02;100.00
8477;BME280;4275;42.854;23.222;2023-12-04T02:04:09;38640.06;;;-141.02;100.00
8477;BME280;4275;42.854;23.222;2023-12-04T02:06:36;38638.16;;;-141.02;100.00
8477;BME280;4275;42.854;23.222;2023-12-04T02:09:03;38645.81;;;-141.02;100.00
8477;BME280;4275;42.854;23.222;2023-12-04T02:11:32;38641.97;;;-141.02;100.00
8477;BME280;4275;42.854;23.222;2023-12-04T02:13:59;38597.88;;;-141.02;100.00
8477;BME280;4275;42.854;23.222;2023-12-04T02:16:27;38661.16;;;-141.02;100.00
8477;BME280;4275;42.854;23.222;2023-12-04T02:18:57;38628.56;;;-141.02;100.00
8477;BME280;4275;42.854;23.222;2023-12-04T02:21:24;38641.97;;;-141.02;100.00
8477;BME280;4275;42.854;23.222;2023-12-04T02:23:53;38647.72;;;-141.02;100.00
8477;BME280;4275;42.854;23.222;2023-12-04T02:26:26;38607.47;;;-141.02;100.00
8477;BME280;4275;42.854;23.222;2023-12-04T02:28:58;38661.16;;;-141.02;100.00
8477;BME280;4275;42.854;23.222;2023-12-04T02:31:27;38630.47;;;-141.02;100.00
8477;BME280;4275;42.854;23.222;2023-12-04T02:33:55;38626.66;;;-141.02;100.00
8477;BME280;4275;42.854;23.222;2023-12-04T02:36:24;38641.97;;;-141.02;100.00
8477;BME280;4275;42.854;23.222;2023-12-04T02:38:54;38643.91;;;-141.02;100.00
8477;BME280;4275;42.854;23.222;2023-12-04T02:41:21;38678.41;;;-141.02;100.00
8477;BME280;4275;42.854;23.222;2023-12-04T02:43:49;38668.81;;;-141.02;100.00
8477;BME280;4275;42.854;23.222;2023-12-04T02:46:16;38672.66;;;-141.02;100.00
8477;BME280;4275;42.854;23.222;2023-12-04T02:48:43;38672.66;;;-141.02;100.00
8477;BME280;4275;42.854;23.222;2023-12-04T02:51:10;38630.47;;;-141.02;100.00
8477;BME280;4275;42.854;23.222;2023-12-04T02:53:37;38674.56;;;-141.02;100.00
8477;BME280;4275;42.854;23.222;2023-12-04T02:56:06;38672.66;;;-141.02;100.00
8477;BME280;4275;42.854;23.222;2023-12-04T02:58:33;38645.81;;;-141.02;100.00
8477;BME280;4275;42.854;23.222;2023-12-04T03:01:00;38661.16;;;-141.02;100.00
8477;BME280;4275;42.854;23.222;2023-12-04T03:03:27;38622.81;;;-141.02;100.00
8477;BME280;4275;42.854;23.222;2023-12-04T03:05:54;38699.50;;;-141.02;100.00
8477;BME280;4275;42.854;23.222;2023-12-04T03:08:21;38678.41;;;-141.02;100.00
8477;BME280;4275;42.854;23.222;2023-12-04T03:10:48;38672.66;;;-141.02;100.00
8477;BME280;4275;42.854;23.222;2023-12-04T03:13:16;38688.00;;;-141.02;100.00
8477;BME280;4275;42.854;23.222;2023-12-04T03:15:43;38680.34;;;-141.02;100.00
8477;BME280;4275;42.854;23.222;2023-12-04T03:18:10;38661.16;;;-141.02;100.00
8477;BME280;4275;42.854;23.222;2023-12-04T03:20:37;38676.50;;;-141.02;100.00
8477;BME280;4275;42.854;23.222;2023-12-04T03:23:04;38703.34;;;-141.02;100.00
8477;BME280;4275;42.854;23.222;2023-12-04T03:25:31;38682.25;;;-141.02;100.00
8477;BME280;4275;42.854;23.222;2023-12-04T03:27:58;38691.84;;;-141.02;100.00
8477;BME280;4275;42.854;23.222;2023-12-04T03:30:26;38707.19;;;-141.02;100.00
8477;BME280;4275;42.854;23.222;2023-12-04T03:32:53;38668.81;;;-141.02;100.00
8477;BME280;4275;42.854;23.222;2023-12-04T03:35:20;38695.66;;;-141.02;100.00
8477;BME280;4275;42.854;23.222;2023-12-04T03:37:47;38693.75;;;-141.02;100.00
8477;BME280;4275;42.854;23.222;2023-12-04T03:40:15;38722.50;;;-141.02;100.00
8477;BME280;4275;42.854;23.222;2023-12-04T03:42:42;38726.34;;;-141.02;100.00
8477;BME280;4275;42.854;23.222;2023-12-04T03:45:10;38712.94;;;-141.02;100.00
8477;BME280;4275;42.854;23.222;2023-12-04T03:47:38;38753.19;;;-141.02;100.00
8477;BME280;4275;42.854;23.222;2023-12-04T03:50:06;38695.66;;;-141.02;100.00
8477;BME280;4275;42.854;23.222;2023-12-04T03:52:32;38737.84;;;-141.02;100.00
8477;BME280;4275;42.854;23.222;2023-12-04T03:54:59;38711.00;;;-141.02;100.00
8477;BME280;4275;42.854;23.222;2023-12-04T03:57:26;38716.75;;;-141.02;100.00
8477;BME280;4275;42.854;23.222;2023-12-04T03:59:53;38793.47;;;-141.02;100.00
8477;BME280;4275;42.854;23.222;2023-12-04T04:02:20;38766.63;;;-141.02;100.00
8477;BME280;4275;42.854;23.222;2023-12-04T04:04:49;38766.63;;;-141.02;100.00
8477;BME280;4275;42.854;23.222;2023-12-04T04:07:16;38764.69;;;-141.02;100.00
8477;BME280;4275;42.854;23.222;2023-12-04T04:09:43;38757.03;;;-141.02;100.00
8477;BME280;4275;42.854;23.222;2023-12-04T04:12:10;38793.47;;;-141.02;100.00
8477;BME280;4275;42.854;23.222;2023-12-04T04:14:38;38887.41;;;-141.02;100.00
8477;BME280;4275;42.854;23.222;2023-12-04T04:17:05;38760.84;;;-141.02;100.00
8477;BME280;4275;42.854;23.222;2023-12-04T04:19:32;38810.72;;;-141.02;100.00
8477;BME280;4275;42.854;23.222;2023-12-04T04:22:00;38776.19;;;-141.02;100.00
8477;BME280;4275;42.854;23.222;2023-12-04T04:24:28;38760.84;;;-141.02;100.00
8477;BME280;4275;42.854;23.222;2023-12-04T04:26:55;38757.03;;;-141.02;100.00
8477;BME280;4275;42.854;23.222;2023-12-04T04:29:22;38814.56;;;-141.02;100.00
8477;BME280;4275;42.854;23.222;2023-12-04T04:31:49;38797.28;;;-141.02;100.00
8477;BME280;4275;42.854;23.222;2023-12-04T04:34:16;38776.19;;;-141.02;100.00
8477;BME280;4275;42.854;23.222;2023-12-04T04:36:43;38783.88;;;-141.02;100.00
8477;BME280;4275;42.854;23.222;2023-12-04T04:39:12;38780.03;;;-141.02;100.00
8477;BME280;4275;42.854;23.222;2023-12-04T04:41:40;38810.72;;;-141.02;100.00
8477;BME280;4275;42.854;23.222;2023-12-04T04:44:07;38829.88;;;-141.02;100.00
8477;BME280;4275;42.854;23.222;2023-12-04T04:46:34;38768.53;;;-141.02;100.00
8477;BME280;4275;42.854;23.222;2023-12-04T04:49:01;38814.56;;;-141.02;100.00
8477;BME280;4275;42.854;23.222;2023-12-04T04:51:31;38764.69;;;-141.02;100.00
8477;BME280;4275;42.854;23.222;2023-12-04T04:53:58;38808.78;;;-141.02;100.00
8477;BME280;4275;42.854;23.222;2023-12-04T04:56:27;38776.19;;;-141.02;100.00
8477;BME280;4275;42.854;23.222;2023-12-04T04:58:54;38806.88;;;-141.02;100.00
8477;BME280;4275;42.854;23.222;2023-12-04T05:01:21;38841.41;;;-141.02;100.00
8477;BME280;4275;42.854;23.222;2023-12-04T05:03:48;38787.72;;;-141.02;100.00
8477;BME280;4275;42.854;23.222;2023-12-04T05:06:15;38791.53;;;-141.02;100.00
8477;BME280;4275;42.854;23.222;2023-12-04T05:08:42;38816.47;;;-141.02;100.00
8477;BME280;4275;42.854;23.222;2023-12-04T05:11:08;38822.22;;;-141.02;100.00
8477;BME280;4275;42.854;23.222;2023-12-04T05:13:37;38812.63;;;-141.02;100.00
8477;BME280;4275;42.854;23.222;2023-12-04T05:16:05;38854.81;;;-141.02;100.00
8477;BME280;4275;42.854;23.222;2023-12-04T05:18:32;38801.13;;;-141.02;100.00
8477;BME280;4275;42.854;23.222;2023-12-04T05:20:58;38849.06;;;-141.02;100.00
8477;BME280;4275;42.854;23.222;2023-12-04T05:23:25;38860.56;;;-141.02;100.00
8477;BME280;4275;42.854;23.222;2023-12-04T05:25:52;38852.91;;;-141.02;100.00
8477;BME280;4275;42.854;23.222;2023-12-04T05:28:19;38868.25;;;-141.02;100.00
8477;BME280;4275;42.854;23.222;2023-12-04T05:30:48;38875.91;;;-141.02;100.00
8477;BME280;4275;42.854;23.222;2023-12-04T05:33:15;38929.59;;;-141.02;100.00
8477;BME280;4275;42.854;23.222;2023-12-04T05:35:41;38956.44;;;-141.02;100.00
8477;BME280;4275;42.854;23.222;2023-12-04T05:38:08;39006.31;;;-141.02;100.00
8477;BME280;4275;42.854;23.222;2023-12-04T05:40:35;39048.50;;;-141.02;100.00
8477;BME280;4275;42.854;23.222;2023-12-04T05:43:02;39092.59;;;-141.02;100.00
8477;BME280;4275;42.854;23.222;2023-12-04T05:45:29;39163.53;;;-141.02;100.00
8477;BME280;4275;42.854;23.222;2023-12-04T05:47:57;39228.75;;;-141.02;100.00
8477;BME280;4275;42.854;23.222;2023-12-04T05:50:24;39278.59;;;-141.02;100.00
8477;BME280;4275;42.854;23.222;2023-12-04T05:52:51;39332.31;;;-141.02;100.00
8477;BME280;4275;42.854;23.222;2023-12-04T05:55:18;39326.56;;;-141.02;100.00
8477;BME280;4275;42.854;23.222;2023-12-04T05:57:46;39322.72;;;-141.02;100.00
8477;BME280;4275;42.854;23.222;2023-12-04T06:00:13;39347.66;;;-141.02;100.00
8477;BME280;4275;42.854;23.222;2023-12-04T06:02:41;39370.66;;;-141.02;100.00
8477;BME280;4275;42.854;23.222;2023-12-04T06:05:10;39531.75;;;-141.02;100.00
8477;BME280;4275;42.854;23.222;2023-12-04T06:07:37;39324.63;;;-141.02;100.00
8477;BME280;4275;42.854;23.222;2023-12-04T06:10:05;39518.31;;;-141.02;100.00
8477;BME280;4275;42.854;23.222;2023-12-04T06:12:33;39723.53;;;-141.02;100.00
8477;BME280;4275;42.854;23.222;2023-12-04T06:15:00;39825.19;;;-141.02;100.00
8477;BME280;4275;42.854;23.222;2023-12-04T06:17:27;39859.72;;;-141.02;100.00
8477;BME280;4275;42.854;23.222;2023-12-04T06:19:54;39869.31;;;-141.02;100.00
8477;BME280;4275;42.854;23.222;2023-12-04T06:22:23;39888.50;;;-141.02;100.00
8477;BME280;4275;42.854;23.222;2023-12-04T06:24:50;39915.34;;;-141.02;100.00
8477;BME280;4275;42.854;23.222;2023-12-04T06:27:19;39957.53;;;-141.02;100.00
8477;BME280;4275;42.854;23.222;2023-12-04T06:29:47;39934.53;;;-141.02;100.00
8477;BME280;4275;42.854;23.222;2023-12-04T06:32:14;39992.06;;;-141.02;100.00
8477;BME280;4275;42.854;23.222;2023-12-04T06:34:42;39999.75;;;-141.02;100.00
8477;BME280;4275;42.854;23.222;2023-12-04T06:37:10;40007.41;;;-141.02;100.00
8477;BME280;4275;42.854;23.222;2023-12-04T06:39:40;40034.28;;;-141.02;100.00
8477;BME280;4275;42.854;23.222;2023-12-04T06:42:08;40061.13;;;-141.02;100.00
8477;BME280;4275;42.854;23.222;2023-12-04T06:44:36;40068.78;;;-141.02;100.00
8477;BME280;4275;42.854;23.222;2023-12-04T06:47:04;40057.28;;;-141.02;100.00
8477;BME280;4275;42.854;23.222;2023-12-04T06:49:34;40132.09;;;-141.02;100.00
8477;BME280;4275;42.854;23.222;2023-12-04T06:52:01;40139.78;;;-141.02;100.00
8477;BME280;4275;42.854;23.222;2023-12-04T06:54:28;40199.22;;;-141.02;100.00
8477;BME280;4275;42.854;23.222;2023-12-04T06:56:57;40178.13;;;-141.02;100.00
8477;BME280;4275;42.854;23.222;2023-12-04T06:59:23;40168.53;;;-141.02;100.00
8477;BME280;4275;42.854;23.222;2023-12-04T07:01:50;40183.88;;;-141.02;100.00
8477;BME280;4275;42.854;23.222;2023-12-04T07:04:17;40245.28;;;-141.02;100.00
8477;BME280;4275;42.854;23.222;2023-12-04T07:06:46;40266.38;;;-141.02;100.00
8477;BME280;4275;42.854;23.222;2023-12-04T07:09:14;40249.13;;;-141.02;100.00
8477;BME280;4275;42.854;23.222;2023-12-04T07:11:42;40233.75;;;-141.02;100.00
8477;BME280;4275;42.854;23.222;2023-12-04T07:14:11;40249.13;;;-141.02;100.00
8477;BME280;4275;42.854;23.222;2023-12-04T07:16:39;40245.28;;;-141.02;100.00
8477;BME280;4275;42.854;23.222;2023-12-04T07:19:06;40289.41;;;-141.02;100.00
8477;BME280;4275;42.854;23.222;2023-12-04T07:21:33;40228.00;;;-141.02;100.00
8477;BME280;4275;42.854;23.222;2023-12-04T07:24:00;40285.56;;;-141.02;100.00
8477;BME280;4275;42.854;23.222;2023-12-04T07:26:27;40333.50;;;-141.02;100.00
8477;BME280;4275;42.854;23.222;2023-12-04T07:28:54;40302.81;;;-141.02;100.00
8477;BME280;4275;42.854;23.222;2023-12-04T07:31:23;40314.34;;;-141.02;100.00
8477;BME280;4275;42.854;23.222;2023-12-04T07:33:51;40327.75;;;-141.02;100.00
8477;BME280;4275;42.854;23.222;2023-12-04T07:36:18;40300.91;;;-141.02;100.00
8477;BME280;4275;42.854;23.222;2023-12-04T07:38:45;40308.56;;;-141.02;100.00
8477;BME280;4275;42.854;23.222;2023-12-04T07:41:13;40314.34;;;-141.02;100.00
8477;BME280;4275;42.854;23.222;2023-12-04T07:43:40;40337.34;;;-141.02;100.00
8477;BME280;4275;42.854;23.222;2023-12-04T07:46:09;40331.59;;;-141.02;100.00
8477;BME280;4275;42.854;23.222;2023-12-04T07:48:38;40329.69;;;-141.02;100.00
8477;BME280;4275;42.854;23.222;2023-12-04T07:51:05;40360.38;;;-141.02;100.00
8477;BME280;4275;42.854;23.222;2023-12-04T07:53:32;40375.72;;;-141.02;100.00
8477;BME280;4275;42.854;23.222;2023-12-04T07:56:00;40383.38;;;-141.02;100.00
8477;BME280;4275;42.854;23.222;2023-12-04T07:58:28;40366.13;;;-141.02;100.00
8477;BME280;4275;42.854;23.222;2023-12-04T08:00:55;40398.75;;;-141.02;100.00
8477;BME280;4275;42.854;23.222;2023-12-04T08:03:23;40392.97;;;-141.02;100.00
8477;BME280;4275;42.854;23.222;2023-12-04T08:05:52;40437.09;;;-141.02;100.00
8477;BME280;4275;42.854;23.222;2023-12-04T08:08:19;40486.97;;;-141.02;100.00
8477;BME280;4275;42.854;23.222;2023-12-04T08:10:47;40444.78;;;-141.02;100.00
8477;BME280;4275;42.854;23.222;2023-12-04T08:13:14;40406.41;;;-141.02;100.00
8477;BME280;4275;42.854;23.222;2023-12-04T08:15:41;40456.28;;;-141.02;100.00
8477;BME280;4275;42.854;23.222;2023-12-04T08:18:08;40456.28;;;-141.02;100.00
8477;BME280;4275;42.854;23.222;2023-12-04T08:20:35;40433.28;;;-141.02;100.00
8477;BME280;4275;42.854;23.222;2023-12-04T08:23:03;40417.94;;;-141.02;100.00
8477;BME280;4275;42.854;23.222;2023-12-04T08:25:31;40446.69;;;-141.02;100.00
8477;BME280;4275;42.854;23.222;2023-12-04T08:27:58;40429.44;;;-141.02;100.00
8477;BME280;4275;42.854;23.222;2023-12-04T08:30:26;40494.66;;;-141.02;100.00
8477;BME280;4275;42.854;23.222;2023-12-04T08:32:53;40437.09;;;-141.02;100.00
8477;BME280;4275;42.854;23.222;2023-12-04T08:35:20;40440.94;;;-141.02;100.00
8477;BME280;4275;42.854;23.222;2023-12-04T08:37:47;40448.63;;;-141.02;100.00
8477;BME280;4275;42.854;23.222;2023-12-04T08:40:16;40479.31;;;-141.02;100.00
8477;BME280;4275;42.854;23.222;2023-12-04T08:42:43;40469.72;;;-141.02;100.00
8477;BME280;4275;42.854;23.222;2023-12-04T08:45:11;40471.63;;;-141.02;100.00
8477;BME280;4275;42.854;23.222;2023-12-04T08:47:38;40517.69;;;-141.02;100.00
8477;BME280;4275;42.854;23.222;2023-12-04T08:50:06;40486.97;;;-141.02;100.00
8477;BME280;4275;42.854;23.222;2023-12-04T08:52:33;40471.63;;;-141.02;100.00
8477;BME280;4275;42.854;23.222;2023-12-04T08:55:00;40473.56;;;-141.02;100.00
8477;BME280;4275;42.854;23.222;2023-12-04T08:57:28;40467.81;;;-141.02;100.00
8477;BME280;4275;42.854;23.222;2023-12-04T08:59:55;40511.94;;;-141.02;100.00
8477;BME280;4275;42.854;23.222;2023-12-04T09:02:22;40546.47;;;-141.02;100.00
8477;BME280;4275;42.854;23.222;2023-12-04T09:04:49;40502.34;;;-141.02;100.00
8477;BME280;4275;42.854;23.222;2023-12-04T09:07:16;40519.59;;;-141.02;100.00
8477;BME280;4275;42.854;23.222;2023-12-04T09:09:43;40540.69;;;-141.02;100.00
8477;BME280;4275;42.854;23.222;2023-12-04T09:12:11;40533.03;;;-141.02;100.00
8477;BME280;4275;42.854;23.222;2023-12-04T09:14:40;40513.84;;;-141.02;100.00
8477;BME280;4275;42.854;23.222;2023-12-04T09:17:07;40529.19;;;-141.02;100.00
8477;BME280;4275;42.854;23.222;2023-12-04T09:19:34;40536.88;;;-141.02;100.00
8477;BME280;4275;42.854;23.222;2023-12-04T09:22:01;40556.03;;;-141.02;100.00
8477;BME280;4275;42.854;23.222;2023-12-04T09:24:28;40548.38;;;-141.02;100.00
8477;BME280;4275;42.854;23.222;2023-12-04T09:26:56;40531.09;;;-141.02;100.00
8477;BME280;4275;42.854;23.222;2023-12-04T09:29:23;40533.03;;;-141.02;100.00
8477;BME280;4275;42.854;23.222;2023-12-04T09:31:52;40506.16;;;-141.02;100.00
8477;BME280;4275;42.854;23.222;2023-12-04T09:34:19;40613.59;;;-141.02;100.00
8477;BME280;4275;42.854;23.222;2023-12-04T09:36:48;40544.53;;;-141.02;100.00
8477;BME280;4275;42.854;23.222;2023-12-04T09:39:15;40540.69;;;-141.02;100.00
8477;BME280;4275;42.854;23.222;2023-12-04T09:41:43;40552.22;;;-141.02;100.00
8477;BME280;4275;42.854;23.222;2023-12-04T09:44:10;40565.63;;;-141.02;100.00
8477;BME280;4275;42.854;23.222;2023-12-04T09:46:38;40525.34;;;-141.02;100.00
8477;BME280;4275;42.854;23.222;2023-12-04T09:49:07;40521.50;;;-141.02;100.00
8477;BME280;4275;42.854;23.222;2023-12-04T09:51:35;40529.19;;;-141.02;100.00
8477;BME280;4275;42.854;23.222;2023-12-04T09:54:03;40521.50;;;-141.02;100.00
8477;BME280;4275;42.854;23.222;2023-12-04T09:56:31;40567.56;;;-141.02;100.00
8477;BME280;4275;42.854;23.222;2023-12-04T09:59:00;40646.22;;;-141.02;100.00
8477;BME280;4275;42.854;23.222;2023-12-04T10:01:29;40586.75;;;-141.02;100.00
8477;BME280;4275;42.854;23.222;2023-12-04T10:03:56;40590.59;;;-141.02;100.00
8477;BME280;4275;42.854;23.222;2023-12-04T10:06:26;40546.47;;;-141.02;100.00
8477;BME280;4275;42.854;23.222;2023-12-04T10:08:55;40542.63;;;-141.02;100.00
8477;BME280;4275;42.854;23.222;2023-12-04T10:11:22;40552.22;;;-141.02;100.00
8477;BME280;4275;42.854;23.222;2023-12-04T10:13:50;40540.69;;;-141.02;100.00
8477;BME280;4275;42.854;23.222;2023-12-04T10:16:31;40525.34;;;-141.02;100.00
8477;BME280;4275;42.854;23.222;2023-12-04T10:19:14;40533.03;;;-141.02;100.00
8477;BME280;4275;42.854;23.222;2023-12-04T10:21:43;40531.09;;;-141.02;100.00
8477;BME280;4275;42.854;23.222;2023-12-04T10:24:10;40584.81;;;-141.02;100.00
8477;BME280;4275;42.854;23.222;2023-12-04T10:26:38;40536.88;;;-141.02;100.00
8477;BME280;4275;42.854;23.222;2023-12-04T10:29:16;40609.75;;;-141.02;100.00
8477;BME280;4275;42.854;23.222;2023-12-04T10:31:43;40536.88;;;-141.02;100.00
8477;BME280;4275;42.854;23.222;2023-12-04T10:34:10;40548.38;;;-141.02;100.00
8477;BME280;4275;42.854;23.222;2023-12-04T10:36:37;40559.88;;;-141.02;100.00
8477;BME280;4275;42.854;23.222;2023-12-04T10:39:06;40563.72;;;-141.02;100.00
8477;BME280;4275;42.854;23.222;2023-12-04T10:41:33;40552.22;;;-141.02;100.00
8477;BME280;4275;42.854;23.222;2023-12-04T10:44:00;40613.59;;;-141.02;98.68
8477;BME280;4275;42.854;23.222;2023-12-04T10:46:28;40609.75;;;-141.02;100.00
8477;BME280;4275;42.854;23.222;2023-12-04T10:48:56;40594.41;;;-141.02;100.00
8477;BME280;4275;42.854;23.222;2023-12-04T10:51:23;40544.53;;;-141.02;100.00
8477;BME280;4275;42.854;23.222;2023-12-04T10:53:52;40604.00;;;-141.02;96.41
8477;BME280;4275;42.854;23.222;2023-12-04T10:56:36;40569.47;;;-141.02;100.00
8477;BME280;4275;42.854;23.222;2023-12-04T10:59:10;40567.56;;;-141.02;97.71
8477;BME280;4275;42.854;23.222;2023-12-04T11:01:38;40648.13;;;-141.02;100.00
8477;BME280;4275;42.854;23.222;2023-12-04T11:04:11;40715.28;;;-141.02;100.00
8477;BME280;4275;42.854;23.222;2023-12-04T11:06:45;40628.94;;;-141.02;96.38
8477;BME280;4275;42.854;23.222;2023-12-04T11:09:16;40755.56;;;-141.02;99.48
8477;BME280;4275;42.854;23.222;2023-12-04T11:11:50;40759.41;;;-141.02;100.00
8477;BME280;4275;42.854;23.222;2023-12-04T11:14:21;40740.22;;;-141.02;100.00
8477;BME280;4275;42.854;23.222;2023-12-04T11:16:51;40747.91;;;-141.02;99.13
8477;BME280;4275;42.854;23.222;2023-12-04T11:19:27;40740.22;;;-141.02;100.00
8477;BME280;4275;42.854;23.222;2023-12-04T11:21:58;40757.50;;;-141.02;94.95
8477;BME280;4275;42.854;23.222;2023-12-04T11:24:25;40722.97;;;-141.02;95.79
8477;BME280;4275;42.854;23.222;2023-12-04T11:26:54;40755.56;;;-141.02;97.64
8477;BME280;4275;42.854;23.222;2023-12-04T11:29:22;40732.56;;;-141.02;94.72
8477;BME280;4275;42.854;23.222;2023-12-04T11:31:49;40736.38;;;-141.02;94.21
8477;BME280;4275;42.854;23.222;2023-12-04T11:34:16;40717.19;;;-141.02;97.97
8477;BME280;4275;42.854;23.222;2023-12-04T11:36:44;40759.41;;;-141.02;95.32
8477;BME280;4275;42.854;23.222;2023-12-04T11:39:11;40726.78;;;-141.02;95.12
8477;BME280;4275;42.854;23.222;2023-12-04T11:41:40;40740.22;;;-141.02;97.83
8477;BME280;4275;42.854;23.222;2023-12-04T11:44:13;40749.81;;;-141.02;98.13
8477;BME280;4275;42.854;23.222;2023-12-04T11:46:55;40738.31;;;-141.02;94.77
8477;BME280;4275;42.854;23.222;2023-12-04T11:49:29;40736.38;;;-141.02;99.48
8477;BME280;4275;42.854;23.222;2023-12-04T11:51:56;40759.41;;;-141.02;97.04
8477;BME280;4275;42.854;23.222;2023-12-04T11:54:26;40813.13;;;-141.02;91.18
8477;BME280;4275;42.854;23.222;2023-12-04T11:56:58;40747.91;;;-141.02;95.25
8477;BME280;4275;42.854;23.222;2023-12-04T11:59:27;40747.91;;;-141.02;95.21
8477;BME280;4275;42.854;23.222;2023-12-04T12:01:55;40736.38;;;-141.02;96.04
8477;BME280;4275;42.854;23.222;2023-12-04T12:04:23;40770.91;;;-141.02;94.90
8477;BME280;4275;42.854;23.222;2023-12-04T12:06:50;40740.22;;;-141.02;89.54
8477;BME280;4275;42.854;23.222;2023-12-04T12:09:18;40728.72;;;-141.02;93.26
8477;BME280;4275;42.854;23.222;2023-12-04T12:11:45;40736.38;;;-141.02;95.46
8477;BME280;4275;42.854;23.222;2023-12-04T12:14:12;40763.25;;;-141.02;97.77
8477;BME280;4275;42.854;23.222;2023-12-04T12:16:41;40784.34;;;-141.02;92.10
8477;BME280;4275;42.854;23.222;2023-12-04T12:19:08;40767.09;;;-141.02;94.75
8477;BME280;4275;42.854;23.222;2023-12-04T12:21:36;40728.72;;;-141.02;95.89
8477;BME280;4275;42.854;23.222;2023-12-04T12:24:05;40730.63;;;-141.02;95.72
8477;BME280;4275;42.854;23.222;2023-12-04T12:26:32;40726.78;;;-141.02;93.97
8477;BME280;4275;42.854;23.222;2023-12-04T12:28:59;40744.06;;;-141.02;88.67
8477;BME280;4275;42.854;23.222;2023-12-04T12:31:26;40772.84;;;-141.02;90.17
8477;BME280;4275;42.854;23.222;2023-12-04T12:33:56;40747.91;;;-141.02;91.19
8477;BME280;4275;42.854;23.222;2023-12-04T12:36:23;40759.41;;;-141.02;91.70
8477;BME280;4275;42.854;23.222;2023-12-04T12:38:50;40747.91;;;-141.02;93.66
8477;BME280;4275;42.854;23.222;2023-12-04T12:41:17;40866.84;;;-141.02;94.32
8477;BME280;4275;42.854;23.222;2023-12-04T12:43:45;40843.81;;;-141.02;94.00